Time;durP1;ratioP1;P1;durP2;ratioP2;P2;SDS_P1;SDS_P2;PMS_P1;PMS_P2;Temp;Humidity;BMP_temperature;BMP_pressure;BME280_temperature;BME280_humidity;BME280_pressure;Samples;Min_cycle;Max_cycle;Signal;HPM_P1;HPM_P2
2022/06/19 00:01:22;;;;;;;5.43;3.70;;;16.10;99.90;;;;;;5025392;28;20821;-71
2022/06/19 00:04:13;;;;;;;8.30;3.43;;;16.10;99.90;;;;;;5031355;28;20491;-71
2022/06/19 00:07:07;;;;;;;6.40;3.10;;;16.20;99.90;;;;;;5027162;28;20467;-71
2022/06/19 00:10:04;;;;;;;7.00;3.10;;;16.20;99.90;;;;;;5035492;28;20538;-72
2022/06/19 00:12:53;;;;;;;6.90;2.93;;;16.10;99.90;;;;;;5027557;28;20460;-72
2022/06/19 00:15:49;;;;;;;8.03;4.10;;;16.10;99.90;;;;;;5030701;28;20494;-72
2022/06/19 00:18:40;;;;;;;8.70;4.40;;;16.10;99.90;;;;;;5036625;28;20451;-72
2022/06/19 00:21:40;;;;;;;;;;;;;;;;;;;;;
2022/06/19 00:24:39;;;;;;;7.83;3.37;;;16.10;99.90;;;;;;5031865;28;20497;-72
2022/06/19 00:27:39;;;;;;;8.07;3.37;;;16.00;99.90;;;;;;5027638;28;21012;-73
2022/06/19 00:30:48;;;;;;;9.80;3.90;;;16.00;99.90;;;;;;5031398;28;20451;-72
2022/06/19 00:33:43;;;;;;;9.03;2.93;;;15.90;99.90;;;;;;5025585;28;20478;-71
2022/06/19 00:36:40;;;;;;;7.33;4.10;;;15.90;99.90;;;;;;5028338;28;20509;-71
2022/06/19 00:39:39;;;;;;;8.90;3.50;;;15.80;99.90;;;;;;5031663;28;20490;-72
2022/06/19 00:42:33;;;;;;;9.63;4.20;;;15.80;99.90;;;;;;5033734;28;20487;-72
2022/06/19 00:45:36;;;;;;;11.40;3.80;;;15.80;99.90;;;;;;5029630;28;20569;-71
2022/06/19 00:48:32;;;;;;;10.30;3.80;;;15.70;99.90;;;;;;5029989;28;20609;-72
2022/06/19 00:51:20;;;;;;;7.37;3.87;;;15.70;99.90;;;;;;5028086;28;20542;-72
2022/06/19 00:54:22;;;;;;;8.57;3.13;;;15.80;99.90;;;;;;5031416;28;20571;-72
2022/06/19 00:57:20;;;;;;;9.47;3.17;;;15.70;99.90;;;;;;5030983;28;20966;-72
2022/06/19 01:00:19;;;;;;;12.00;3.73;;;15.70;99.90;;;;;;5029238;28;20526;-72
2022/06/19 01:03:18;;;;;;;6.47;3.00;;;15.70;99.90;;;;;;5028807;28;20475;-72
2022/06/19 01:06:11;;;;;;;11.50;3.07;;;15.70;99.90;;;;;;5026394;28;21760;-71
2022/06/19 01:09:03;;;;;;;8.30;2.90;;;15.70;99.90;;;;;;5031048;28;20621;-72
2022/06/19 01:15:16;;;;;;;9.00;3.00;;;15.70;99.90;;;;;;5029393;28;20486;-71
2022/06/19 01:18:13;;;;;;;8.40;3.43;;;15.70;99.90;;;;;;5030635;28;20943;-72
2022/06/19 01:24:39;;;;;;;10.63;3.90;;;15.70;99.90;;;;;;5025784;28;20475;-72
2022/06/19 01:30:48;;;;;;;10.40;3.10;;;15.70;99.90;;;;;;5032021;28;20478;-71
2022/06/19 01:33:41;;;;;;;9.80;3.50;;;15.60;99.90;;;;;;5025199;28;20470;-71
2022/06/19 01:36:41;;;;;;;9.23;3.10;;;15.60;99.90;;;;;;5029935;28;20546;-72
2022/06/19 01:39:37;;;;;;;8.80;3.33;;;15.50;99.90;;;;;;5029672;28;20610;-72
2022/06/19 01:42:31;;;;;;;11.90;3.63;;;15.50;99.90;;;;;;5026325;28;20558;-72
2022/06/19 01:45:23;;;;;;;10.87;3.40;;;15.50;99.90;;;;;;5025478;28;20544;-72
2022/06/19 01:48:11;;;;;;;8.97;3.50;;;15.40;99.90;;;;;;5031808;28;20475;-72
2022/06/19 01:51:03;;;;;;;7.77;3.13;;;15.40;99.90;;;;;;5029560;28;20565;-72
2022/06/19 01:54:07;;;;;;;8.93;3.77;;;15.50;99.90;;;;;;5023091;28;20511;-72
2022/06/19 01:56:57;;;;;;;15.40;4.03;;;15.40;99.90;;;;;;5018545;28;20463;-72
2022/06/19 01:59:57;;;;;;;9.13;3.37;;;15.40;99.90;;;;;;5019350;28;20463;-72
2022/06/19 02:02:57;;;;;;;9.97;3.33;;;15.30;99.90;;;;;;5030300;28;20973;-71
2022/06/19 02:05:56;;;;;;;11.10;3.30;;;15.30;99.90;;;;;;5026302;28;20493;-72
2022/06/19 02:09:03;;;;;;;8.67;3.17;;;15.30;99.90;;;;;;5026767;28;20479;-72
2022/06/19 02:12:00;;;;;;;13.67;3.83;;;15.30;99.90;;;;;;5028395;28;20983;-71
2022/06/19 02:14:52;;;;;;;9.20;3.27;;;15.30;99.90;;;;;;5022445;28;20852;-71
2022/06/19 02:17:52;;;;;;;6.93;3.40;;;15.40;99.90;;;;;;5021551;28;20613;-71
2022/06/19 02:20:40;;;;;;;9.37;3.30;;;15.30;99.90;;;;;;5022805;28;20492;-71
2022/06/19 02:23:46;;;;;;;10.10;4.03;;;15.30;99.90;;;;;;5026677;28;21098;-72
2022/06/19 02:26:42;;;;;;;10.90;3.53;;;15.30;99.90;;;;;;5031041;28;20525;-72
2022/06/19 02:30:02;;;;;;;8.47;3.20;;;15.20;99.90;;;;;;5026524;28;20592;-71
2022/06/19 02:32:53;;;;;;;11.10;3.83;;;15.20;99.90;;;;;;5029412;28;20529;-71
2022/06/19 02:35:41;;;;;;;11.70;3.70;;;15.20;99.90;;;;;;5023870;28;20511;-71
2022/06/19 02:38:34;;;;;;;11.50;3.53;;;15.10;99.90;;;;;;5021380;28;20455;-71
2022/06/19 02:41:28;;;;;;;7.30;3.37;;;15.10;99.90;;;;;;5022163;28;21148;-70
2022/06/19 02:44:18;;;;;;;10.33;4.03;;;15.10;99.90;;;;;;5026865;28;20597;-73
2022/06/19 02:47:10;;;;;;;9.00;3.80;;;15.10;99.90;;;;;;5021779;28;20557;-73
2022/06/19 02:50:00;;;;;;;12.67;3.87;;;15.00;99.90;;;;;;5014884;28;20584;-73
2022/06/19 02:53:05;;;;;;;9.20;3.63;;;15.00;99.90;;;;;;5026235;28;20451;-72
2022/06/19 02:59:20;;;;;;;11.43;3.50;;;14.90;99.90;;;;;;5026900;28;20534;-73
2022/06/19 03:02:15;;;;;;;9.53;3.50;;;14.80;99.90;;;;;;5023465;28;20528;-73
2022/06/19 03:05:18;;;;;;;9.37;3.37;;;14.80;99.90;;;;;;5024070;28;20525;-71
2022/06/19 03:08:28;;;;;;;12.37;4.03;;;14.80;99.90;;;;;;5032015;28;20586;-71
2022/06/19 03:11:19;;;;;;;14.67;3.80;;;14.90;99.90;;;;;;5035657;28;20834;-71
2022/06/19 03:14:07;;;;;;;10.60;3.80;;;14.90;99.90;;;;;;5028365;28;20992;-71
2022/06/19 03:16:57;;;;;;;8.80;3.40;;;14.80;99.90;;;;;;5031740;28;20978;-71
2022/06/19 03:20:14;;;;;;;;;;;;;;;;;;;;;
2022/06/19 03:23:17;;;;;;;10.03;3.97;;;14.80;99.90;;;;;;5038064;28;20470;-71
2022/06/19 03:26:07;;;;;;;12.10;4.00;;;14.90;99.90;;;;;;5037975;28;20565;-74
2022/06/19 03:28:58;;;;;;;14.07;4.20;;;14.90;99.90;;;;;;5037234;28;20528;-71
2022/06/19 03:32:05;;;;;;;9.87;3.20;;;14.90;99.90;;;;;;5035419;28;21113;-70
2022/06/19 03:35:07;;;;;;;10.23;4.00;;;14.90;99.90;;;;;;5033537;28;20494;-72
2022/06/19 03:41:46;;;;;;;8.10;3.37;;;15.00;99.90;;;;;;5035307;28;20917;-71
2022/06/19 03:45:00;;;;;;;11.57;3.77;;;15.00;99.90;;;;;;5034070;28;20566;-74
2022/06/19 03:47:48;;;;;;;13.77;4.33;;;15.00;99.90;;;;;;5038152;28;20861;-73
2022/06/19 03:50:37;;;;;;;7.50;3.27;;;15.00;99.90;;;;;;5032349;28;20545;-71
2022/06/19 03:53:42;;;;;;;10.70;3.63;;;15.00;99.90;;;;;;5035265;28;20500;-71
2022/06/19 03:56:38;;;;;;;10.63;4.00;;;15.00;99.90;;;;;;5035223;28;20446;-71
2022/06/19 03:59:33;;;;;;;14.03;3.93;;;15.00;99.90;;;;;;5037174;28;20452;-71
2022/06/19 04:02:43;;;;;;;10.07;3.90;;;15.10;99.90;;;;;;5029429;28;20642;-71
2022/06/19 04:05:42;;;;;;;8.20;4.10;;;15.10;99.90;;;;;;5028294;28;20909;-71
2022/06/19 04:08:51;;;;;;;11.53;3.87;;;15.10;99.90;;;;;;5034093;28;20537;-71
2022/06/19 04:12:00;;;;;;;9.40;3.70;;;15.10;99.90;;;;;;5039249;28;20450;-71
2022/06/19 04:15:00;;;;;;;11.07;4.30;;;15.10;99.90;;;;;;5041685;28;21065;-71
2022/06/19 04:17:48;;;;;;;13.90;3.83;;;15.10;99.90;;;;;;5045014;28;20466;-71
2022/06/19 04:24:09;;;;;;;9.77;4.30;;;15.20;99.90;;;;;;5038687;28;20483;-73
2022/06/19 04:27:09;;;;;;;9.93;3.50;;;15.20;99.90;;;;;;5038711;28;20462;-70
2022/06/19 04:30:16;;;;;;;9.53;3.60;;;15.20;99.90;;;;;;5030686;28;21438;-72
2022/06/19 04:33:16;;;;;;;10.03;3.90;;;15.10;99.90;;;;;;5028311;28;20491;-73
2022/06/19 04:36:18;;;;;;;8.20;3.97;;;15.10;99.90;;;;;;5031036;28;20566;-73
2022/06/19 04:39:12;;;;;;;9.70;4.27;;;15.10;99.90;;;;;;5032457;28;20546;-73
2022/06/19 04:42:11;;;;;;;9.53;4.17;;;15.20;99.90;;;;;;5029269;28;20547;-72
2022/06/19 04:45:02;;;;;;;14.97;3.93;;;15.20;99.90;;;;;;5028146;28;20557;-73
2022/06/19 04:47:52;;;;;;;7.93;3.57;;;15.20;99.90;;;;;;5030032;28;20538;-73
2022/06/19 04:50:45;;;;;;;10.10;3.30;;;15.20;99.90;;;;;;5032377;28;20494;-73
2022/06/19 04:53:48;;;;;;;9.20;3.63;;;15.20;99.90;;;;;;5035420;28;20523;-73
2022/06/19 04:56:51;;;;;;;10.27;4.70;;;15.20;99.90;;;;;;5032708;28;20458;-71
2022/06/19 05:00:05;;;;;;;8.93;3.60;;;15.20;99.90;;;;;;5036500;28;20454;-71
2022/06/19 05:03:14;;;;;;;10.27;4.20;;;15.30;99.90;;;;;;5028245;28;20574;-71
2022/06/19 05:06:09;;;;;;;7.93;3.97;;;15.30;99.90;;;;;;5029379;28;20970;-71
2022/06/19 05:09:11;;;;;;;13.30;4.40;;;15.40;99.90;;;;;;5034888;28;22347;-71
2022/06/19 05:12:06;;;;;;;8.30;3.63;;;15.30;99.90;;;;;;5035004;28;20451;-71
2022/06/19 05:14:57;;;;;;;11.60;4.33;;;15.40;99.90;;;;;;5033411;28;20474;-71
2022/06/19 05:17:51;;;;;;;11.63;4.30;;;15.40;99.90;;;;;;5033098;28;21376;-71
2022/06/19 05:21:01;;;;;;;6.90;3.67;;;15.40;99.90;;;;;;5031687;28;20443;-70
2022/06/19 05:23:50;;;;;;;12.17;5.77;;;15.40;99.90;;;;;;5030919;28;20512;-71
2022/06/19 05:26:50;;;;;;;11.07;3.80;;;15.40;99.90;;;;;;5029776;28;20578;-71
2022/06/19 05:29:42;;;;;;;8.57;3.53;;;15.40;99.90;;;;;;5027705;28;20452;-72
2022/06/19 05:32:38;;;;;;;13.47;4.43;;;15.50;99.90;;;;;;5030840;28;20448;-71
2022/06/19 05:35:27;;;;;;;9.77;4.23;;;15.50;99.90;;;;;;5028444;28;21074;-71
2022/06/19 05:38:22;;;;;;;10.00;4.27;;;15.50;99.90;;;;;;5023506;28;20967;-74
2022/06/19 05:41:11;;;;;;;9.30;4.00;;;15.50;99.90;;;;;;5030081;28;20565;-71
2022/06/19 05:44:11;;;;;;;6.43;3.80;;;15.60;99.90;;;;;;5026836;28;20511;-74
2022/06/19 05:47:19;;;;;;;10.30;3.90;;;15.60;99.90;;;;;;5025542;28;20838;-71
2022/06/19 05:50:27;;;;;;;8.77;3.73;;;15.80;99.90;;;;;;5029942;28;20474;-73
2022/06/19 05:53:26;;;;;;;11.37;4.57;;;15.80;99.90;;;;;;5031353;28;20556;-72
2022/06/19 05:56:23;;;;;;;8.50;3.70;;;16.00;99.90;;;;;;5028206;28;20560;-71
2022/06/19 05:59:17;;;;;;;12.13;4.93;;;16.00;99.90;;;;;;5030723;28;20456;-71
2022/06/19 06:02:11;;;;;;;13.00;4.63;;;16.10;99.90;;;;;;5017481;28;20460;-71
2022/06/19 06:05:02;;;;;;;12.37;4.47;;;16.10;99.90;;;;;;5009233;28;20487;-71
2022/06/19 06:07:55;;;;;;;12.57;4.27;;;16.10;99.90;;;;;;5018399;28;20973;-71
2022/06/19 06:10:50;;;;;;;9.80;4.10;;;16.20;99.90;;;;;;5027765;28;20553;-72
2022/06/19 06:13:40;;;;;;;12.00;4.37;;;16.20;99.90;;;;;;5019601;28;20628;-72
2022/06/19 06:16:35;;;;;;;12.07;4.27;;;16.20;99.90;;;;;;5023359;28;20864;-72
2022/06/19 06:19:24;;;;;;;8.50;4.47;;;16.10;99.90;;;;;;5025991;28;20453;-72
2022/06/19 06:22:12;;;;;;;9.57;4.87;;;16.10;99.90;;;;;;5013234;28;20578;-71
2022/06/19 06:25:01;;;;;;;6.37;4.17;;;16.10;99.90;;;;;;5008955;28;20959;-71
2022/06/19 06:27:50;;;;;;;8.90;3.90;;;16.10;99.90;;;;;;5019033;28;20471;-72
2022/06/19 06:30:38;;;;;;;7.50;4.03;;;16.20;99.90;;;;;;5020504;28;20491;-72
2022/06/19 06:33:27;;;;;;;11.20;4.10;;;16.10;99.90;;;;;;5026561;28;20526;-74
2022/06/19 06:36:16;;;;;;;8.37;4.00;;;16.30;99.90;;;;;;5027657;28;20458;-73
2022/06/19 06:39:05;;;;;;;10.00;3.70;;;16.30;99.90;;;;;;5019284;28;20831;-72
2022/06/19 06:41:54;;;;;;;7.50;3.00;;;16.30;99.90;;;;;;5010725;28;20656;-72
2022/06/19 06:44:43;;;;;;;9.10;4.00;;;16.30;99.90;;;;;;4996043;28;20517;-70
2022/06/19 06:47:31;;;;;;;6.33;3.30;;;16.30;99.90;;;;;;5019453;28;26014;-72
2022/06/19 06:50:19;;;;;;;6.17;3.30;;;16.30;99.90;;;;;;5007838;28;20579;-70
2022/06/19 06:53:09;;;;;;;7.10;3.23;;;16.30;99.90;;;;;;5032688;28;20568;-71
2022/06/19 06:55:58;;;;;;;7.20;3.40;;;16.30;99.90;;;;;;5029726;28;20486;-72
2022/06/19 06:58:48;;;;;;;7.10;2.93;;;16.30;99.90;;;;;;5028468;28;20461;-72
2022/06/19 07:01:36;;;;;;;4.37;2.83;;;16.40;99.90;;;;;;5029010;28;20503;-72
2022/06/19 07:04:27;;;;;;;4.37;2.90;;;16.50;99.90;;;;;;5017777;28;20491;-73
2022/06/19 07:07:18;;;;;;;4.90;2.50;;;16.50;99.90;;;;;;5034551;28;20920;-72
2022/06/19 07:10:11;;;;;;;5.77;3.10;;;16.60;99.90;;;;;;5033979;28;20486;-72
2022/06/19 07:13:07;;;;;;;5.17;2.87;;;16.70;99.90;;;;;;5037473;28;20481;-71
2022/06/19 07:15:58;;;;;;;4.17;2.87;;;16.70;99.90;;;;;;5035142;28;20924;-72
2022/06/19 07:18:47;;;;;;;4.30;2.40;;;16.70;99.90;;;;;;5033134;28;20458;-71
2022/06/19 07:21:35;;;;;;;5.67;2.80;;;16.80;99.90;;;;;;5035994;28;20532;-72
2022/06/19 07:24:25;;;;;;;6.50;2.90;;;16.80;99.90;;;;;;5030425;28;20481;-72
2022/06/19 07:27:13;;;;;;;3.47;2.33;;;16.90;99.90;;;;;;5029357;28;20586;-72
2022/06/19 07:30:02;;;;;;;4.97;2.70;;;16.90;99.90;;;;;;5031421;28;20462;-72
2022/06/19 07:32:52;;;;;;;3.63;2.23;;;16.90;99.90;;;;;;5035924;28;20474;-73
2022/06/19 07:35:43;;;;;;;2.57;2.20;;;17.00;99.90;;;;;;5039570;28;20598;-73
2022/06/19 07:38:32;;;;;;;2.67;2.27;;;17.10;99.90;;;;;;5033402;28;20455;-73
2022/06/19 07:41:20;;;;;;;3.77;2.27;;;17.10;99.90;;;;;;5036206;28;20754;-73
2022/06/19 07:44:09;;;;;;;3.47;2.37;;;17.20;99.90;;;;;;5031403;28;20505;-71
2022/06/19 07:50:13;;;;;;;4.80;2.40;;;17.30;99.90;;;;;;5038535;28;20799;-72
2022/06/19 07:53:02;;;;;;;3.67;2.13;;;17.40;99.90;;;;;;5034249;28;20983;-73
2022/06/19 07:55:50;;;;;;;2.70;1.93;;;17.50;99.90;;;;;;5030426;28;20482;-72
2022/06/19 07:58:38;;;;;;;5.53;2.47;;;17.60;99.90;;;;;;5030682;28;20466;-73
2022/06/19 08:01:28;;;;;;;3.50;2.20;;;17.60;99.90;;;;;;5035598;28;20581;-72
2022/06/19 08:04:36;;;;;;;3.37;2.10;;;17.60;99.90;;;;;;5030343;28;20849;-73
2022/06/19 08:07:31;;;;;;;2.30;1.60;;;17.70;99.90;;;;;;5027622;28;20462;-73
2022/06/19 08:10:22;;;;;;;4.33;2.13;;;17.70;99.90;;;;;;5031678;28;20454;-72
2022/06/19 08:13:11;;;;;;;3.90;2.50;;;17.80;99.90;;;;;;5031886;28;20512;-72
2022/06/19 08:16:03;;;;;;;2.17;1.83;;;17.90;99.90;;;;;;5037222;28;20596;-72
2022/06/19 08:18:53;;;;;;;3.17;1.80;;;18.00;99.90;;;;;;5033631;28;20633;-71
2022/06/19 08:21:41;;;;;;;2.60;1.70;;;18.10;99.90;;;;;;5034982;28;20530;-72
2022/06/19 08:24:31;;;;;;;4.63;1.90;;;18.10;99.90;;;;;;5032576;28;20488;-72
2022/06/19 08:27:19;;;;;;;3.13;1.70;;;18.20;99.90;;;;;;5033220;28;20927;-72
2022/06/19 08:30:13;;;;;;;7.07;2.27;;;18.20;99.90;;;;;;5031144;28;20614;-72
2022/06/19 08:33:04;;;;;;;3.60;1.97;;;18.20;99.90;;;;;;5036648;28;20571;-72
2022/06/19 08:35:56;;;;;;;2.73;1.73;;;18.20;99.90;;;;;;5032861;28;20977;-72
2022/06/19 08:38:48;;;;;;;3.67;1.97;;;18.20;99.90;;;;;;5028566;28;20491;-74
2022/06/19 08:42:11;;;;;;;7.33;1.80;;;18.20;99.90;;;;;;5031866;28;20502;-72
2022/06/19 08:45:25;;;;;;;2.87;1.60;;;18.20;99.90;;;;;;5039771;28;20919;-72
2022/06/19 08:48:57;;;;;;;4.13;2.23;;;18.20;99.90;;;;;;5041507;28;20479;-74
2022/06/19 08:51:59;;;;;;;3.73;2.10;;;18.20;99.90;;;;;;5033580;28;21102;-72
2022/06/19 08:54:59;;;;;;;3.63;1.60;;;18.20;99.90;;;;;;5028252;28;20950;-72
2022/06/19 08:57:57;;;;;;;3.67;2.10;;;18.30;99.90;;;;;;5032673;28;20948;-72
2022/06/19 09:00:52;;;;;;;4.83;1.97;;;18.40;99.90;;;;;;5028312;28;20966;-72
2022/06/19 09:07:05;;;;;;;6.60;2.03;;;18.40;99.90;;;;;;5035537;28;20459;-75
2022/06/19 09:10:07;;;;;;;2.23;1.70;;;18.40;99.90;;;;;;5030139;28;20490;-72
2022/06/19 09:13:13;;;;;;;3.53;1.67;;;18.50;99.90;;;;;;5030813;28;20576;-72
2022/06/19 09:16:03;;;;;;;4.53;1.97;;;18.50;99.90;;;;;;5033650;28;20830;-73
2022/06/19 09:19:02;;;;;;;4.90;1.83;;;18.60;99.90;;;;;;5034833;28;20447;-72
2022/06/19 09:22:03;;;;;;;3.27;2.20;;;18.60;99.90;;;;;;5030598;28;20483;-71
2022/06/19 09:25:04;;;;;;;3.30;2.00;;;18.60;99.90;;;;;;5029260;28;20523;-72
2022/06/19 09:28:00;;;;;;;4.50;1.90;;;18.80;99.90;;;;;;5034769;28;20508;-71
2022/06/19 09:30:57;;;;;;;7.83;2.00;;;18.90;99.90;;;;;;5025538;28;21178;-71
2022/06/19 09:33:53;;;;;;;3.43;2.33;;;19.00;99.90;;;;;;5033184;28;20557;-72
2022/06/19 09:36:47;;;;;;;4.27;1.87;;;19.00;99.90;;;;;;5028739;28;20475;-72
2022/06/19 09:39:47;;;;;;;3.70;2.27;;;19.00;99.90;;;;;;5029077;28;20597;-72
2022/06/19 09:42:39;;;;;;;2.73;1.80;;;19.00;99.90;;;;;;5032223;28;21070;-72
2022/06/19 09:45:33;;;;;;;3.33;2.03;;;19.00;99.90;;;;;;5030200;28;20545;-72
2022/06/19 09:48:27;;;;;;;3.67;2.30;;;19.00;99.90;;;;;;5034477;28;21025;-72
2022/06/19 09:51:22;;;;;;;3.53;2.10;;;19.10;99.90;;;;;;5026712;28;20455;-72
2022/06/19 09:54:15;;;;;;;3.83;2.40;;;19.00;99.90;;;;;;5030031;28;20521;-72
2022/06/19 09:57:11;;;;;;;4.63;2.90;;;19.00;99.90;;;;;;5035452;28;20610;-72
2022/06/19 10:00:04;;;;;;;5.60;3.00;;;19.00;99.90;;;;;;5034620;28;21065;-73
2022/06/19 10:02:58;;;;;;;5.00;3.00;;;18.90;99.90;;;;;;5025458;28;20562;-72
2022/06/19 10:05:51;;;;;;;4.17;2.60;;;18.80;99.90;;;;;;5026393;28;20554;-72
2022/06/19 10:08:44;;;;;;;4.63;2.60;;;18.70;99.90;;;;;;5028921;28;20590;-72
2022/06/19 10:11:42;;;;;;;5.90;2.90;;;18.60;99.90;;;;;;5031157;28;21094;-72
2022/06/19 10:14:36;;;;;;;3.87;2.83;;;18.60;99.90;;;;;;5028556;28;20603;-72
2022/06/19 10:17:28;;;;;;;4.13;2.70;;;18.60;99.90;;;;;;5031007;28;21160;-71
2022/06/19 10:20:19;;;;;;;3.83;2.77;;;18.60;99.90;;;;;;5030643;28;20474;-72
2022/06/19 10:23:17;;;;;;;3.27;2.43;;;18.50;99.90;;;;;;5029845;28;21077;-71
2022/06/19 10:26:23;;;;;;;4.53;3.10;;;18.40;99.90;;;;;;5029622;28;20967;-73
2022/06/19 10:29:31;;;;;;;3.93;2.90;;;18.30;99.90;;;;;;5015554;28;20450;-72
2022/06/19 10:32:37;;;;;;;3.70;2.60;;;18.30;99.90;;;;;;5024139;28;21064;-72
2022/06/19 10:35:38;;;;;;;5.63;3.03;;;18.20;99.90;;;;;;5031033;28;21215;-72
2022/06/19 10:38:57;;;;;;;5.97;3.00;;;18.20;99.90;;;;;;5025320;28;20833;-72
2022/06/19 10:42:05;;;;;;;5.70;2.97;;;18.10;99.90;;;;;;5027937;28;20519;-72
2022/06/19 10:45:19;;;;;;;5.33;3.50;;;18.00;99.90;;;;;;5031062;28;20879;-72
2022/06/19 10:48:27;;;;;;;3.43;2.53;;;18.00;99.90;;;;;;5026956;28;20509;-71
2022/06/19 10:51:37;;;;;;;6.43;3.07;;;18.00;99.90;;;;;;5023733;28;20959;-72
2022/06/19 10:54:47;;;;;;;4.90;3.03;;;18.00;99.90;;;;;;5020454;28;20495;-72
2022/06/19 10:57:52;;;;;;;8.83;3.27;;;17.90;99.90;;;;;;5024984;28;20625;-72
2022/06/19 11:00:41;;;;;;;7.90;3.43;;;17.90;99.90;;;;;;4991372;28;20451;-70
2022/06/19 11:06:51;;;;;;;7.07;3.27;;;17.90;99.90;;;;;;5012691;28;21630;-73
2022/06/19 11:09:44;;;;;;;6.90;2.93;;;18.00;99.90;;;;;;5015411;28;20450;-73
2022/06/19 11:12:41;;;;;;;6.80;3.27;;;18.00;99.90;;;;;;5012212;28;20498;-72
2022/06/19 11:15:35;;;;;;;6.50;3.40;;;18.00;99.90;;;;;;5009402;28;21017;-72
2022/06/19 11:18:25;;;;;;;6.70;3.17;;;18.00;99.90;;;;;;5026119;28;20447;-73
2022/06/19 11:21:17;;;;;;;6.23;3.57;;;18.00;99.90;;;;;;5023389;28;21009;-72
2022/06/19 11:24:06;;;;;;;10.83;3.87;;;18.00;99.90;;;;;;5015712;28;21592;-73
2022/06/19 11:27:00;;;;;;;6.13;3.70;;;18.10;99.90;;;;;;5024617;28;20450;-73
2022/06/19 11:29:52;;;;;;;9.47;4.13;;;18.10;99.90;;;;;;5020704;28;20477;-73
2022/06/19 11:32:50;;;;;;;8.23;3.40;;;18.10;99.90;;;;;;5028941;28;20455;-74
2022/06/19 11:35:48;;;;;;;6.83;3.87;;;18.10;99.90;;;;;;5020125;28;20471;-77
2022/06/19 11:38:41;;;;;;;5.80;3.90;;;18.10;99.90;;;;;;5025648;28;20964;-74
2022/06/19 11:41:34;;;;;;;10.53;3.70;;;18.20;99.90;;;;;;5019343;28;20550;-73
2022/06/19 11:44:24;;;;;;;5.73;3.43;;;18.10;99.90;;;;;;5028490;28;20998;-71
2022/06/19 11:47:18;;;;;;;7.50;3.77;;;18.10;99.90;;;;;;5021372;28;20537;-72
2022/06/19 11:50:20;;;;;;;5.63;3.50;;;18.10;99.90;;;;;;5014596;28;20481;-73
2022/06/19 11:53:23;;;;;;;5.60;3.70;;;18.10;99.90;;;;;;5027276;28;20486;-72
2022/06/19 11:56:24;;;;;;;7.40;3.43;;;18.10;99.90;;;;;;5029504;28;20477;-72
2022/06/19 11:59:31;;;;;;;10.07;4.10;;;18.00;99.90;;;;;;5025846;28;20939;-72
2022/06/19 12:02:26;;;;;;;7.33;4.40;;;18.00;99.90;;;;;;5017350;28;20669;-72
2022/06/19 12:05:23;;;;;;;5.77;4.07;;;18.00;99.90;;;;;;5031839;28;20475;-72
2022/06/19 12:08:22;;;;;;;5.93;3.30;;;17.90;99.90;;;;;;5029914;28;20922;-72
2022/06/19 12:11:13;;;;;;;7.93;3.67;;;17.90;99.90;;;;;;5029319;28;20526;-72
2022/06/19 12:14:02;;;;;;;7.50;3.97;;;17.80;99.90;;;;;;5026439;28;21196;-73
2022/06/19 12:17:14;;;;;;;8.37;3.97;;;17.70;99.90;;;;;;5029767;28;20541;-73
2022/06/19 12:20:24;;;;;;;5.60;3.63;;;17.60;99.90;;;;;;5029286;28;20826;-73
2022/06/19 12:23:22;;;;;;;7.20;4.43;;;17.60;99.90;;;;;;5032567;28;20547;-73
2022/06/19 12:26:26;;;;;;;11.73;4.80;;;17.50;99.90;;;;;;5027431;28;20860;-73
2022/06/19 12:29:28;;;;;;;9.80;4.17;;;17.40;99.90;;;;;;5034376;28;20509;-73
2022/06/19 12:32:23;;;;;;;6.30;3.83;;;17.40;99.90;;;;;;5031744;28;20527;-73
2022/06/19 12:35:23;;;;;;;7.57;4.60;;;17.40;99.90;;;;;;5031201;28;20565;-73
2022/06/19 12:38:17;;;;;;;8.33;4.70;;;17.40;99.90;;;;;;5027817;28;20464;-73
2022/06/19 12:41:27;;;;;;;9.13;4.77;;;17.30;99.90;;;;;;5023417;28;20467;-73
2022/06/19 12:44:28;;;;;;;8.53;4.30;;;17.30;99.90;;;;;;5039115;28;20489;-73
2022/06/19 12:47:26;;;;;;;7.83;4.30;;;17.30;99.90;;;;;;5033696;28;20447;-72
2022/06/19 12:50:30;;;;;;;8.23;4.37;;;17.20;99.90;;;;;;5031053;28;20490;-73
2022/06/19 12:53:43;;;;;;;7.77;4.90;;;17.10;99.90;;;;;;5023658;28;20585;-72
2022/06/19 12:56:52;;;;;;;6.80;4.37;;;17.10;99.90;;;;;;5030390;28;20524;-73
2022/06/19 12:59:59;;;;;;;10.13;4.60;;;17.00;99.90;;;;;;5013377;28;20921;-73
2022/06/19 13:03:28;;;;;;;9.30;4.60;;;17.00;99.90;;;;;;5017379;28;20546;-72
2022/06/19 13:06:47;;;;;;;8.37;4.37;;;17.00;99.90;;;;;;5016519;28;20478;-72
2022/06/19 13:09:57;;;;;;;12.23;4.93;;;17.00;99.90;;;;;;5024378;28;20455;-72
2022/06/19 13:13:02;;;;;;;9.60;4.10;;;16.90;99.90;;;;;;5015111;28;20447;-73
2022/06/19 13:15:57;;;;;;;9.57;4.50;;;16.90;99.90;;;;;;5029183;28;20490;-73
2022/06/19 13:18:57;;;;;;;7.07;5.03;;;16.90;99.90;;;;;;5026249;28;20465;-72
2022/06/19 13:21:57;;;;;;;5.13;4.63;;;16.90;99.90;;;;;;5029049;28;20447;-73
2022/06/19 13:24:53;;;;;;;8.10;4.90;;;16.90;99.90;;;;;;5004354;28;20484;-73
2022/06/19 13:28:06;;;;;;;7.10;4.30;;;16.90;99.90;;;;;;5014889;28;20455;-73
2022/06/19 13:31:04;;;;;;;8.83;4.70;;;16.90;99.90;;;;;;5020905;28;20470;-73
2022/06/19 13:34:17;;;;;;;7.97;4.57;;;16.80;99.90;;;;;;5018506;28;20487;-73
2022/06/19 13:37:16;;;;;;;8.83;4.50;;;16.80;99.90;;;;;;5016705;28;20450;-73
2022/06/19 13:40:13;;;;;;;6.80;4.10;;;16.80;99.90;;;;;;5014510;28;20467;-73
2022/06/19 13:43:19;;;;;;;5.50;3.90;;;16.80;99.90;;;;;;5012147;28;20600;-73
2022/06/19 13:46:28;;;;;;;7.60;4.97;;;16.70;99.90;;;;;;5012620;28;20962;-73
2022/06/19 13:49:26;;;;;;;6.63;3.90;;;16.80;99.90;;;;;;5012520;28;20458;-73
2022/06/19 13:52:42;;;;;;;6.33;3.30;;;16.70;99.90;;;;;;5026298;28;20491;-73
2022/06/19 13:55:47;;;;;;;7.80;4.03;;;16.70;99.90;;;;;;5016872;28;20482;-73
2022/06/19 13:59:07;;;;;;;5.10;3.60;;;16.70;99.90;;;;;;5027980;28;20821;-74
2022/06/19 14:02:05;;;;;;;6.40;3.73;;;16.70;99.90;;;;;;5027031;28;20470;-73
2022/06/19 14:05:10;;;;;;;4.97;3.67;;;16.80;99.90;;;;;;5028530;28;20497;-73
2022/06/19 14:08:14;;;;;;;6.70;3.60;;;16.80;99.90;;;;;;4998655;28;20478;-73
2022/06/19 14:11:10;;;;;;;5.00;4.07;;;16.90;99.90;;;;;;5021937;28;20963;-73
2022/06/19 14:14:21;;;;;;;6.50;3.80;;;16.90;99.90;;;;;;5015974;28;20478;-73
2022/06/19 14:17:24;;;;;;;4.80;3.73;;;16.90;99.90;;;;;;5020438;28;20826;-71
2022/06/19 14:20:24;;;;;;;5.60;3.27;;;16.90;99.90;;;;;;5025353;28;20467;-72
2022/06/19 14:23:21;;;;;;;3.37;3.07;;;16.90;99.90;;;;;;5027595;28;20475;-72
2022/06/19 14:26:21;;;;;;;5.20;3.63;;;16.80;99.90;;;;;;5021005;28;20478;-72
2022/06/19 14:29:31;;;;;;;5.57;3.53;;;16.70;99.90;;;;;;5025478;28;20539;-72
2022/06/19 14:32:22;;;;;;;6.50;3.47;;;16.70;99.90;;;;;;5025664;28;20451;-73
2022/06/19 14:35:26;;;;;;;3.53;2.87;;;16.70;99.90;;;;;;5021731;28;20578;-72
2022/06/19 14:38:33;;;;;;;4.70;3.10;;;16.60;99.90;;;;;;5029281;28;20451;-72
2022/06/19 14:41:30;;;;;;;5.60;3.47;;;16.60;99.90;;;;;;5026448;28;20547;-72
2022/06/19 14:44:22;;;;;;;5.90;3.40;;;16.60;99.90;;;;;;5016071;28;20513;-72
2022/06/19 14:47:23;;;;;;;4.70;3.30;;;16.60;99.90;;;;;;5020947;28;20467;-72
2022/06/19 14:50:45;;;;;;;6.73;3.50;;;16.50;99.90;;;;;;5021277;28;20490;-71
2022/06/19 14:53:59;;;;;;;7.37;3.97;;;16.50;99.90;;;;;;5021886;28;20478;-72
2022/06/19 14:57:12;;;;;;;4.97;3.57;;;16.50;99.90;;;;;;5012094;28;21204;-72
2022/06/19 15:00:04;;;;;;;4.97;3.50;;;16.50;99.90;;;;;;5026084;28;20483;-72
2022/06/19 15:02:59;;;;;;;5.53;3.80;;;16.60;99.90;;;;;;5020341;28;20466;-72
2022/06/19 15:05:51;;;;;;;7.30;3.53;;;16.60;99.90;;;;;;5022425;28;20477;-72
2022/06/19 15:08:53;;;;;;;3.77;3.30;;;16.70;99.90;;;;;;5021584;28;20546;-72
2022/06/19 15:11:42;;;;;;;6.83;3.50;;;16.70;99.90;;;;;;5019191;28;20539;-72
2022/06/19 15:14:54;;;;;;;5.60;3.57;;;16.70;99.90;;;;;;5022000;28;20527;-72
2022/06/19 15:17:46;;;;;;;4.07;2.67;;;16.70;99.90;;;;;;5030102;28;20551;-72
2022/06/19 15:20:57;;;;;;;5.37;3.47;;;16.60;99.90;;;;;;5026677;28;20922;-72
2022/06/19 15:23:50;;;;;;;3.80;3.50;;;16.60;99.90;;;;;;5026955;28;20535;-72
2022/06/19 15:26:46;;;;;;;4.00;3.60;;;16.60;99.90;;;;;;5013419;28;20963;-72
2022/06/19 15:29:51;;;;;;;4.10;3.57;;;16.60;99.90;;;;;;5028523;28;20448;-71
2022/06/19 15:32:57;;;;;;;4.60;3.40;;;16.50;99.90;;;;;;5007315;28;20462;-71
2022/06/19 15:36:07;;;;;;;6.40;4.47;;;16.50;99.90;;;;;;5019926;28;20490;-71
2022/06/19 15:39:28;;;;;;;5.73;3.50;;;16.60;99.90;;;;;;5014960;28;20639;-71
2022/06/19 15:42:24;;;;;;;7.90;5.40;;;16.80;99.90;;;;;;5010939;28;20454;-70
2022/06/19 15:45:16;;;;;;;27.27;25.03;;;17.00;99.90;;;;;;5017038;28;20550;-72
2022/06/19 15:48:34;;;;;;;8.40;7.60;;;17.10;99.90;;;;;;5003544;28;20601;-71
2022/06/19 15:51:30;;;;;;;4.93;4.43;;;17.40;99.90;;;;;;5020516;28;20616;-71
2022/06/19 15:54:20;;;;;;;6.10;5.40;;;17.60;99.90;;;;;;5023197;28;20587;-72
2022/06/19 15:57:18;;;;;;;5.20;3.30;;;18.00;99.90;;;;;;5022162;28;20529;-72